Time;durP1;ratioP1;P1;durP2;ratioP2;P2;SDS_P1;SDS_P2;PMS_P1;PMS_P2;Temp;Humidity;BMP_temperature;BMP_pressure;BME280_temperature;BME280_humidity;BME280_pressure;Samples;Min_cycle;Max_cycle;Signal;HPM_P1;HPM_P2
2021/05/22 00:01:26;;;;;;;5.47;2.60;;;8.90;84.40;;;;;;5037652;28;20218;-86
2021/05/22 00:03:54;;;;;;;7.90;2.47;;;8.90;84.40;;;;;;5062650;22;20568;-88
2021/05/22 00:06:20;;;;;;;7.57;2.13;;;8.90;84.50;;;;;;5037909;28;20256;-88
2021/05/22 00:08:45;;;;;;;7.90;2.33;;;9.00;84.70;;;;;;5037947;28;20278;-88
2021/05/22 00:11:11;;;;;;;5.30;2.50;;;9.00;84.60;;;;;;5055765;28;20167;-88
2021/05/22 00:13:37;;;;;;;11.33;2.90;;;9.10;84.60;;;;;;5037747;28;20196;-88
2021/05/22 00:16:03;;;;;;;11.30;2.43;;;9.20;84.30;;;;;;5037757;28;20176;-88
2021/05/22 00:18:28;;;;;;;6.20;2.27;;;9.20;84.40;;;;;;5037646;28;20180;-88
2021/05/22 00:20:54;;;;;;;10.07;2.57;;;9.20;84.30;;;;;;5055543;28;20179;-88
2021/05/22 00:23:19;;;;;;;7.87;2.20;;;9.20;84.50;;;;;;5055403;28;20667;-88
2021/05/22 00:25:46;;;;;;;6.20;2.87;;;9.20;84.60;;;;;;5055417;28;20180;-88
2021/05/22 00:28:11;;;;;;;6.13;2.20;;;9.20;84.60;;;;;;5037417;28;20227;-88
2021/05/22 00:30:37;;;;;;;7.80;2.40;;;9.20;84.40;;;;;;5037558;28;20172;-88
2021/05/22 00:33:02;;;;;;;7.53;2.37;;;9.20;84.10;;;;;;5037417;28;20203;-88
2021/05/22 00:35:28;;;;;;;9.80;2.47;;;9.20;83.70;;;;;;5038256;28;20203;-87
2021/05/22 00:37:54;;;;;;;8.53;2.53;;;9.20;83.80;;;;;;5037363;28;20199;-88
2021/05/22 00:40:19;;;;;;;11.33;2.77;;;9.10;83.90;;;;;;5037359;28;20702;-88
2021/05/22 00:42:45;;;;;;;9.43;2.50;;;9.10;83.90;;;;;;5055048;28;20192;-88
2021/05/22 00:45:19;;;;;;;5.73;2.17;;;9.10;83.60;;;;;;5055066;28;20650;-88
2021/05/22 00:47:51;;;;;;;9.23;2.80;;;9.10;83.20;;;;;;5055107;28;20175;-88
2021/05/22 00:50:29;;;;;;;11.13;2.63;;;9.00;83.40;;;;;;5037173;28;20643;-88
2021/05/22 00:52:55;;;;;;;6.47;2.53;;;9.00;83.60;;;;;;5054959;28;20188;-88
2021/05/22 00:55:21;;;;;;;6.83;2.43;;;9.00;83.60;;;;;;5054967;28;20546;-88
2021/05/22 00:57:47;;;;;;;7.30;2.57;;;9.00;83.50;;;;;;5054949;28;20706;-88
2021/05/22 01:00:16;;;;;;;7.23;2.10;;;9.00;83.30;;;;;;5053972;28;20168;-88
2021/05/22 01:02:43;;;;;;;7.47;2.20;;;9.00;83.20;;;;;;5036711;28;20303;-88
2021/05/22 01:05:10;;;;;;;9.33;2.60;;;9.00;82.90;;;;;;5054721;28;20275;-88
2021/05/22 01:07:36;;;;;;;12.90;2.50;;;9.10;82.80;;;;;;5054675;28;20179;-88
2021/05/22 01:10:05;;;;;;;4.47;2.10;;;9.10;82.50;;;;;;5054540;28;20195;-88
2021/05/22 01:12:34;;;;;;;3.83;2.03;;;9.20;82.30;;;;;;5036591;28;20254;-88
2021/05/22 01:15:09;;;;;;;5.57;1.90;;;9.20;81.70;;;;;;5036624;28;20595;-87
2021/05/22 01:17:37;;;;;;;7.03;1.97;;;9.50;79.90;;;;;;5036541;28;20227;-87
2021/05/22 01:20:06;;;;;;;9.20;2.27;;;9.60;79.30;;;;;;5036565;28;20165;-87
2021/05/22 01:22:40;;;;;;;4.90;2.10;;;9.70;78.30;;;;;;5036695;28;20203;-87
2021/05/22 01:25:27;;;;;;;19.57;3.33;;;9.70;77.60;;;;;;5036501;28;20676;-87
2021/05/22 01:27:53;;;;;;;6.00;1.83;;;9.90;75.90;;;;;;5036317;28;20183;-87
2021/05/22 01:30:19;;;;;;;6.20;2.20;;;9.90;75.50;;;;;;5054159;28;20168;-88
2021/05/22 01:32:45;;;;;;;4.27;1.77;;;9.80;76.70;;;;;;5054365;28;20220;-88
2021/05/22 01:35:14;;;;;;;6.20;2.20;;;9.70;76.50;;;;;;5036179;28;20168;-87
2021/05/22 01:37:39;;;;;;;9.87;2.03;;;9.70;76.60;;;;;;5036240;28;20176;-87
2021/05/22 01:40:07;;;;;;;10.10;1.97;;;9.60;76.80;;;;;;5036243;28;20176;-87
2021/05/22 01:42:34;;;;;;;7.13;2.33;;;9.60;76.60;;;;;;5036105;28;20290;-87
2021/05/22 01:45:03;;;;;;;6.40;2.10;;;9.50;76.90;;;;;;5036050;28;20176;-87
2021/05/22 01:47:29;;;;;;;9.30;2.43;;;9.50;77.10;;;;;;5054214;28;20179;-87
2021/05/22 01:49:55;;;;;;;10.20;3.03;;;9.40;77.40;;;;;;5053773;28;20199;-87
2021/05/22 01:52:22;;;;;;;10.90;2.40;;;9.30;78.00;;;;;;5035953;28;20187;-87
2021/05/22 01:54:49;;;;;;;10.77;2.00;;;9.20;78.20;;;;;;5054010;28;20183;-88
2021/05/22 01:57:16;;;;;;;5.93;2.23;;;9.20;78.10;;;;;;5035869;28;20207;-87
2021/05/22 01:59:42;;;;;;;9.10;2.07;;;9.30;77.70;;;;;;5053651;28;20542;-87
2021/05/22 02:02:08;;;;;;;14.60;2.30;;;9.30;77.70;;;;;;5053429;28;20194;-87
2021/05/22 02:04:36;;;;;;;9.40;1.93;;;9.30;77.90;;;;;;5053965;28;20567;-87
2021/05/22 02:07:03;;;;;;;12.80;2.13;;;9.20;77.90;;;;;;5035982;28;20172;-87
2021/05/22 02:09:30;;;;;;;11.23;2.23;;;9.20;78.20;;;;;;5035561;28;20262;-87
2021/05/22 02:11:56;;;;;;;10.30;2.30;;;9.10;78.30;;;;;;5053040;28;20176;-87
2021/05/22 02:14:34;;;;;;;10.60;1.93;;;9.00;78.90;;;;;;5053420;28;20168;-87
2021/05/22 02:17:02;;;;;;;6.27;1.90;;;8.90;79.50;;;;;;5035827;28;20199;-87
2021/05/22 02:19:30;;;;;;;16.63;2.30;;;8.90;79.40;;;;;;5035496;28;20180;-87
2021/05/22 02:22:01;;;;;;;4.43;2.10;;;9.00;79.30;;;;;;5035449;28;20210;-87
2021/05/22 02:24:27;;;;;;;9.73;2.17;;;9.00;79.60;;;;;;5035478;28;20250;-87
2021/05/22 02:27:02;;;;;;;11.53;1.90;;;9.00;79.80;;;;;;5053246;28;20200;-87
2021/05/22 02:29:28;;;;;;;9.03;2.40;;;9.00;79.90;;;;;;5035396;28;20237;-87
2021/05/22 02:31:57;;;;;;;7.80;1.90;;;9.20;79.10;;;;;;5053168;28;20169;-87
2021/05/22 02:34:37;;;;;;;12.23;2.23;;;9.20;79.20;;;;;;5035394;28;20315;-87
2021/05/22 02:37:04;;;;;;;4.70;2.10;;;9.40;78.00;;;;;;5035600;28;20163;-87
2021/05/22 02:39:30;;;;;;;13.60;2.03;;;9.30;78.50;;;;;;5053058;28;20255;-87
2021/05/22 02:42:01;;;;;;;10.93;1.90;;;9.30;78.70;;;;;;5053274;28;20179;-87
2021/05/22 02:44:29;;;;;;;9.23;2.77;;;9.30;79.10;;;;;;5053117;28;20165;-87
2021/05/22 02:46:56;;;;;;;6.00;1.77;;;9.20;79.60;;;;;;5035268;28;20272;-87
2021/05/22 02:49:27;;;;;;;7.60;2.00;;;9.20;79.50;;;;;;5035106;28;20206;-87
2021/05/22 02:52:00;;;;;;;9.83;2.10;;;9.20;79.40;;;;;;5053260;28;20511;-87
2021/05/22 02:54:27;;;;;;;10.97;2.20;;;9.20;79.30;;;;;;5053028;28;20602;-87
2021/05/22 02:56:55;;;;;;;7.07;1.93;;;9.20;79.20;;;;;;5052949;28;20574;-87
2021/05/22 02:59:22;;;;;;;3.70;2.03;;;9.20;79.30;;;;;;5035085;28;20560;-87
2021/05/22 03:01:49;;;;;;;11.30;2.07;;;9.20;79.70;;;;;;5035012;28;20627;-87
2021/05/22 03:04:15;;;;;;;12.07;2.07;;;9.10;79.90;;;;;;5035006;28;20571;-87
2021/05/22 03:06:41;;;;;;;5.30;2.00;;;9.10;80.00;;;;;;5034982;28;20616;-87
2021/05/22 03:09:07;;;;;;;6.67;2.73;;;9.00;80.70;;;;;;5034848;28;20809;-87
2021/05/22 03:11:34;;;;;;;15.10;2.13;;;9.00;81.00;;;;;;5034969;28;20270;-87
2021/05/22 03:14:00;;;;;;;6.03;1.90;;;9.00;80.80;;;;;;5052752;28;20192;-87
2021/05/22 03:16:25;;;;;;;3.37;1.50;;;9.10;80.40;;;;;;5052801;28;20175;-87
2021/05/22 03:18:51;;;;;;;9.60;1.90;;;9.10;80.40;;;;;;5052726;28;20172;-87
2021/05/22 03:21:16;;;;;;;6.10;2.00;;;9.10;80.50;;;;;;5052745;28;20172;-87
2021/05/22 03:23:42;;;;;;;7.20;1.93;;;9.10;80.60;;;;;;5053421;28;20191;-87
2021/05/22 03:26:08;;;;;;;8.53;2.07;;;9.10;80.80;;;;;;5056544;28;20306;-87
2021/05/22 03:28:34;;;;;;;7.17;2.13;;;9.00;81.00;;;;;;5038635;28;20269;-87
2021/05/22 03:31:00;;;;;;;5.03;1.90;;;9.10;81.00;;;;;;5038687;28;20180;-87
2021/05/22 03:33:25;;;;;;;7.73;2.03;;;9.20;80.40;;;;;;5056463;28;20659;-87
2021/05/22 03:35:51;;;;;;;8.77;2.43;;;9.20;80.20;;;;;;5038554;28;20179;-87
2021/05/22 03:38:17;;;;;;;8.70;2.13;;;9.10;80.40;;;;;;5038536;28;20179;-87
2021/05/22 03:40:44;;;;;;;8.53;2.23;;;9.00;81.00;;;;;;5056301;28;20222;-87
2021/05/22 03:43:09;;;;;;;3.57;1.73;;;9.00;81.10;;;;;;5038298;28;20206;-87
2021/05/22 03:45:35;;;;;;;5.53;1.90;;;9.10;81.00;;;;;;5038434;28;20172;-87
2021/05/22 03:48:01;;;;;;;8.53;1.90;;;9.20;80.70;;;;;;5056044;28;20176;-87
2021/05/22 03:50:27;;;;;;;10.63;2.10;;;9.30;80.20;;;;;;5056143;28;20234;-87
2021/05/22 03:52:52;;;;;;;12.40;2.20;;;9.30;80.30;;;;;;5056080;28;20270;-87
2021/05/22 03:55:18;;;;;;;5.43;2.03;;;9.30;80.40;;;;;;5056082;28;20226;-87
2021/05/22 03:57:44;;;;;;;4.87;2.10;;;9.30;80.40;;;;;;5055966;28;20171;-87
2021/05/22 04:00:11;;;;;;;5.70;2.10;;;9.20;80.70;;;;;;5055945;28;20176;-87
2021/05/22 04:02:36;;;;;;;3.80;1.97;;;9.10;81.20;;;;;;5037700;28;20227;-87
2021/05/22 04:05:04;;;;;;;8.27;2.17;;;9.10;81.70;;;;;;5055777;28;20172;-87
2021/05/22 04:07:29;;;;;;;6.90;2.00;;;9.10;81.60;;;;;;5038188;28;20546;-87
2021/05/22 04:09:55;;;;;;;6.93;2.07;;;9.10;81.80;;;;;;5055596;28;20192;-87
2021/05/22 04:12:21;;;;;;;10.43;2.30;;;9.20;81.60;;;;;;5055648;28;20195;-87
2021/05/22 04:14:46;;;;;;;7.53;1.90;;;9.30;81.30;;;;;;5037715;28;20176;-87
2021/05/22 04:17:12;;;;;;;6.37;2.30;;;9.30;81.30;;;;;;5037741;28;20168;-87
2021/05/22 04:19:38;;;;;;;5.70;1.70;;;9.30;81.40;;;;;;5037741;28;20185;-87
2021/05/22 04:22:04;;;;;;;8.23;1.90;;;9.30;81.70;;;;;;5037643;28;20238;-86
2021/05/22 04:24:29;;;;;;;7.03;1.70;;;9.30;81.50;;;;;;5037550;28;20656;-86
2021/05/22 04:26:55;;;;;;;6.87;2.20;;;9.30;81.20;;;;;;5055384;28;20222;-87
2021/05/22 04:29:20;;;;;;;5.10;1.93;;;9.40;81.40;;;;;;5037430;28;20204;-87
2021/05/22 04:31:46;;;;;;;4.87;2.10;;;9.40;81.40;;;;;;5037486;28;20171;-87
2021/05/22 04:34:12;;;;;;;10.27;2.13;;;9.50;81.10;;;;;;5037491;28;20632;-87
2021/05/22 04:36:38;;;;;;;6.43;1.87;;;9.50;81.10;;;;;;5055253;28;20168;-87
2021/05/22 04:39:05;;;;;;;7.47;1.90;;;9.50;80.60;;;;;;5037270;28;20218;-87
2021/05/22 04:41:31;;;;;;;4.07;1.73;;;9.70;80.10;;;;;;5037242;28;20172;-86
2021/05/22 04:43:56;;;;;;;4.37;1.67;;;9.80;79.70;;;;;;5037263;28;20791;-87
2021/05/22 04:46:22;;;;;;;3.60;1.70;;;9.80;79.20;;;;;;5055101;28;20254;-86
2021/05/22 04:48:47;;;;;;;4.97;2.17;;;9.90;79.00;;;;;;5055274;28;20196;-86
2021/05/22 04:51:15;;;;;;;2.87;1.77;;;9.90;78.40;;;;;;5037143;28;20571;-86
2021/05/22 04:53:41;;;;;;;6.63;2.63;;;9.90;78.40;;;;;;5036929;28;20271;-86
2021/05/22 04:56:06;;;;;;;2.90;1.33;;;10.00;78.60;;;;;;5054905;28;20208;-86
2021/05/22 04:58:32;;;;;;;6.00;1.80;;;10.10;78.30;;;;;;5036906;28;20520;-86
2021/05/22 05:00:58;;;;;;;6.97;1.60;;;10.30;77.50;;;;;;5036984;28;20207;-86
2021/05/22 05:03:23;;;;;;;11.40;2.20;;;10.30;77.40;;;;;;5054531;28;20208;-86
2021/05/22 05:05:49;;;;;;;6.47;1.87;;;10.40;77.40;;;;;;5054634;28;20178;-86
2021/05/22 05:08:20;;;;;;;4.20;1.37;;;10.40;77.10;;;;;;5036687;28;20171;-86
2021/05/22 05:10:47;;;;;;;3.07;1.67;;;10.50;76.70;;;;;;5036848;28;20217;-86
2021/05/22 05:13:13;;;;;;;2.73;1.20;;;10.50;76.90;;;;;;5054491;28;20574;-86
2021/05/22 05:15:39;;;;;;;7.70;1.73;;;10.50;76.10;;;;;;5054524;28;20207;-86
2021/05/22 05:18:06;;;;;;;1.03;0.93;;;10.50;76.30;;;;;;5036549;28;20168;-86
2021/05/22 05:20:32;;;;;;;6.47;1.27;;;10.70;75.50;;;;;;5036574;28;20172;-86
2021/05/22 05:22:57;;;;;;;5.50;1.60;;;10.80;75.80;;;;;;5036438;28;20282;-86
2021/05/22 05:25:23;;;;;;;3.87;1.40;;;10.80;76.10;;;;;;5054325;28;20168;-86
2021/05/22 05:27:49;;;;;;;3.30;1.23;;;10.80;75.80;;;;;;5036420;28;20180;-86
2021/05/22 05:30:15;;;;;;;1.50;1.20;;;10.70;76.80;;;;;;5036260;28;20194;-87
2021/05/22 05:32:41;;;;;;;2.70;1.30;;;10.70;75.60;;;;;;5054072;28;20195;-86
2021/05/22 05:35:09;;;;;;;4.70;1.33;;;10.80;74.50;;;;;;5036589;28;20255;-86
2021/05/22 05:37:36;;;;;;;5.80;1.70;;;10.80;74.20;;;;;;5036284;28;20204;-87
2021/05/22 05:40:02;;;;;;;4.17;1.57;;;10.70;76.40;;;;;;5036160;28;20225;-86
2021/05/22 05:42:28;;;;;;;3.73;1.90;;;10.70;75.30;;;;;;5053974;28;20205;-86
2021/05/22 05:44:53;;;;;;;5.23;1.97;;;10.80;75.20;;;;;;5053961;28;20167;-86
2021/05/22 05:47:19;;;;;;;6.33;1.60;;;10.80;75.30;;;;;;5035412;28;20624;-86
2021/05/22 05:49:44;;;;;;;9.07;1.47;;;10.80;75.10;;;;;;5035908;28;20206;-86
2021/05/22 05:52:10;;;;;;;2.67;1.33;;;10.80;75.10;;;;;;5054049;28;20192;-86
2021/05/22 05:54:36;;;;;;;1.77;0.97;;;10.90;75.10;;;;;;5053709;28;20168;-86
2021/05/22 05:57:02;;;;;;;5.77;1.40;;;10.90;74.80;;;;;;5053735;28;20179;-86
2021/05/22 05:59:27;;;;;;;12.30;2.07;;;11.00;74.70;;;;;;5035682;28;20180;-87
2021/05/22 06:01:54;;;;;;;6.77;2.00;;;11.00;74.70;;;;;;5053394;28;20204;-86
2021/05/22 06:04:19;;;;;;;4.67;1.40;;;11.00;74.90;;;;;;5147258;22;20231;-86
2021/05/22 06:06:45;;;;;;;3.43;1.57;;;11.00;74.40;;;;;;5052203;28;20257;-86
2021/05/22 06:09:11;;;;;;;2.47;1.27;;;11.20;74.00;;;;;;5053715;28;20200;-86
2021/05/22 06:11:37;;;;;;;3.80;1.40;;;11.10;73.90;;;;;;5053505;28;20164;-86
2021/05/22 06:14:08;;;;;;;2.50;1.23;;;11.10;75.10;;;;;;5035402;28;20199;-85
2021/05/22 06:16:35;;;;;;;4.70;1.30;;;11.20;73.30;;;;;;5035522;28;20164;-85
2021/05/22 06:19:01;;;;;;;4.53;1.43;;;11.20;73.90;;;;;;5036461;28;20187;-84
2021/05/22 06:21:27;;;;;;;2.93;1.30;;;11.20;74.20;;;;;;5053137;28;20542;-85
2021/05/22 06:23:52;;;;;;;1.97;1.10;;;11.30;74.20;;;;;;5053196;28;20195;-85
2021/05/22 06:26:18;;;;;;;8.00;1.97;;;11.30;73.30;;;;;;5035270;28;20229;-85
2021/05/22 06:28:44;;;;;;;5.60;1.77;;;11.30;74.00;;;;;;5053150;28;20215;-85
2021/05/22 06:31:09;;;;;;;4.93;2.00;;;11.30;74.10;;;;;;5053089;28;20590;-85
2021/05/22 06:33:35;;;;;;;3.43;1.60;;;11.60;74.80;;;;;;5035240;28;20191;-86
2021/05/22 06:36:02;;;;;;;7.23;2.60;;;11.70;73.20;;;;;;5035212;28;20172;-86
2021/05/22 06:38:28;;;;;;;1.67;1.10;;;11.50;73.00;;;;;;5035176;28;20207;-85
2021/05/22 06:40:54;;;;;;;4.07;1.57;;;11.50;73.60;;;;;;5053063;28;20257;-85
2021/05/22 06:43:20;;;;;;;5.60;1.50;;;11.60;73.50;;;;;;5035366;28;20244;-84
2021/05/22 06:45:56;;;;;;;4.63;1.50;;;11.80;72.10;;;;;;5053105;28;20171;-84
2021/05/22 06:48:22;;;;;;;2.10;1.27;;;11.80;72.70;;;;;;5053272;28;20183;-84
2021/05/22 06:50:47;;;;;;;7.43;1.80;;;11.90;72.80;;;;;;5053211;28;20175;-85
2021/05/22 06:53:13;;;;;;;3.27;1.37;;;12.00;71.50;;;;;;5053119;28;20530;-84
2021/05/22 06:55:39;;;;;;;4.87;2.00;;;11.90;71.70;;;;;;5053187;28;20168;-84
2021/05/22 06:58:06;;;;;;;6.03;1.30;;;12.00;71.90;;;;;;5036307;28;20176;-85
2021/05/22 07:00:31;;;;;;;6.00;1.60;;;11.90;71.20;;;;;;5057008;28;20164;-85
2021/05/22 07:02:57;;;;;;;1.97;1.00;;;11.90;72.10;;;;;;5057661;28;20607;-85
2021/05/22 07:05:23;;;;;;;2.40;1.23;;;11.90;72.80;;;;;;5039522;28;20163;-85
2021/05/22 07:07:48;;;;;;;7.27;1.97;;;11.90;71.80;;;;;;5039876;28;20207;-85
2021/05/22 07:10:14;;;;;;;3.70;1.20;;;11.90;71.50;;;;;;5057320;28;20191;-85
2021/05/22 07:12:40;;;;;;;4.00;1.30;;;11.90;72.90;;;;;;5057123;28;20184;-84
2021/05/22 07:15:08;;;;;;;3.80;1.70;;;11.90;72.60;;;;;;5057110;28;20635;-84
2021/05/22 07:17:34;;;;;;;3.70;1.20;;;11.90;72.90;;;;;;5056707;28;20535;-85
2021/05/22 07:20:00;;;;;;;5.63;1.80;;;11.90;71.20;;;;;;5038733;28;20176;-85
2021/05/22 07:22:26;;;;;;;4.50;1.50;;;11.90;72.00;;;;;;5038685;28;20191;-85
2021/05/22 07:24:52;;;;;;;6.60;1.83;;;11.90;70.30;;;;;;5038817;28;20267;-85
2021/05/22 07:27:19;;;;;;;2.83;2.03;;;11.90;72.20;;;;;;5038912;28;20199;-85
2021/05/22 07:29:50;;;;;;;6.03;1.70;;;11.80;73.00;;;;;;5038490;28;20207;-86
2021/05/22 07:32:16;;;;;;;2.90;1.70;;;11.80;72.70;;;;;;5038780;28;20165;-85
2021/05/22 07:34:41;;;;;;;10.30;1.70;;;11.80;73.30;;;;;;5038598;28;20180;-85
2021/05/22 07:37:07;;;;;;;5.90;2.33;;;11.80;73.00;;;;;;5057153;28;20175;-86
2021/05/22 07:39:33;;;;;;;2.80;1.60;;;11.80;72.50;;;;;;5039272;28;20169;-86
2021/05/22 07:41:59;;;;;;;5.60;1.80;;;11.80;74.90;;;;;;5038348;28;20718;-86
2021/05/22 07:44:25;;;;;;;3.27;1.50;;;11.80;74.40;;;;;;5038377;28;20200;-85
2021/05/22 07:46:50;;;;;;;3.17;1.57;;;11.80;73.80;;;;;;5056498;28;20521;-85
2021/05/22 07:49:16;;;;;;;4.90;1.67;;;11.80;73.90;;;;;;5056209;28;20188;-87
2021/05/22 07:51:43;;;;;;;4.97;1.53;;;11.80;73.00;;;;;;5038698;28;20176;-86
2021/05/22 07:54:09;;;;;;;4.53;1.60;;;11.80;74.20;;;;;;5038220;28;20245;-85
2021/05/22 07:56:35;;;;;;;5.43;1.90;;;11.90;74.00;;;;;;5038137;28;20254;-85
2021/05/22 07:59:00;;;;;;;5.37;1.70;;;11.90;73.30;;;;;;5038266;28;20655;-86
2021/05/22 08:01:26;;;;;;;4.50;1.80;;;11.90;75.30;;;;;;5056096;28;20183;-86
2021/05/22 08:03:51;;;;;;;3.80;1.40;;;11.80;75.90;;;;;;5056011;28;20226;-85
2021/05/22 08:06:17;;;;;;;5.60;1.60;;;11.70;75.50;;;;;;5055984;28;20643;-85
2021/05/22 08:08:47;;;;;;;3.80;1.50;;;11.60;77.00;;;;;;5056123;28;20543;-87
2021/05/22 08:11:13;;;;;;;5.97;2.30;;;11.50;78.30;;;;;;5037468;28;20198;-85
2021/05/22 08:13:40;;;;;;;3.53;1.70;;;11.30;79.10;;;;;;5055411;28;20188;-84
2021/05/22 08:16:06;;;;;;;6.93;1.97;;;11.30;79.90;;;;;;5037571;28;20655;-84
2021/05/22 08:18:32;;;;;;;6.10;1.87;;;11.30;79.10;;;;;;5037730;28;20186;-84
2021/05/22 08:20:57;;;;;;;5.40;2.63;;;11.30;80.40;;;;;;5037697;28;20229;-85
2021/05/22 08:23:23;;;;;;;8.37;2.13;;;11.20;81.40;;;;;;5037567;28;20299;-85
2021/05/22 08:25:49;;;;;;;2.90;1.60;;;11.20;80.70;;;;;;5055655;28;20263;-85
2021/05/22 08:28:21;;;;;;;2.83;1.63;;;11.20;79.90;;;;;;5055401;28;20251;-84
2021/05/22 08:30:48;;;;;;;2.67;1.60;;;11.00;80.00;;;;;;5055445;28;20224;-83
2021/05/22 08:33:14;;;;;;;3.73;1.87;;;11.10;81.00;;;;;;5037481;28;20207;-83
2021/05/22 08:35:40;;;;;;;14.27;2.83;;;11.10;82.00;;;;;;5037555;28;20180;-83
2021/05/22 08:38:06;;;;;;;4.53;1.93;;;11.10;81.60;;;;;;5055243;28;20200;-85
2021/05/22 08:40:32;;;;;;;3.40;1.97;;;11.10;81.30;;;;;;5037287;28;20207;-84
2021/05/22 08:42:57;;;;;;;6.77;3.00;;;11.00;82.20;;;;;;5037314;28;20200;-85
2021/05/22 08:45:23;;;;;;;7.17;2.00;;;11.00;82.80;;;;;;5037301;28;20187;-84
2021/05/22 08:47:52;;;;;;;4.77;2.27;;;11.00;82.90;;;;;;5055114;28;20175;-85
2021/05/22 08:50:18;;;;;;;3.57;1.80;;;10.90;82.90;;;;;;5054826;28;20192;-85
2021/05/22 08:52:44;;;;;;;4.30;2.13;;;10.80;82.90;;;;;;5054921;28;20275;-84
2021/05/22 08:55:11;;;;;;;4.93;2.27;;;10.80;83.90;;;;;;5054938;28;20179;-84
2021/05/22 08:57:37;;;;;;;6.07;2.17;;;10.90;83.50;;;;;;5038489;28;20183;-84
2021/05/22 09:00:09;;;;;;;4.67;1.93;;;10.90;83.90;;;;;;5056134;28;20581;-84
2021/05/22 09:02:34;;;;;;;4.23;1.73;;;11.00;83.80;;;;;;5036768;28;20215;-84
2021/05/22 09:05:18;;;;;;;7.30;2.10;;;11.00;83.00;;;;;;5036871;28;20176;-84
2021/05/22 09:08:07;;;;;;;5.87;2.50;;;10.90;83.80;;;;;;5036894;28;20184;-85
2021/05/22 09:10:35;;;;;;;3.20;1.90;;;10.90;83.60;;;;;;5036689;28;20664;-85
2021/05/22 09:13:03;;;;;;;5.17;2.30;;;10.90;83.40;;;;;;5036663;28;20578;-84
2021/05/22 09:15:35;;;;;;;5.53;2.50;;;10.90;83.40;;;;;;5036675;28;20172;-84
2021/05/22 09:18:15;;;;;;;5.43;2.43;;;10.80;83.50;;;;;;5054680;28;20169;-83
2021/05/22 09:20:50;;;;;;;5.07;2.50;;;10.80;83.70;;;;;;5036484;28;20619;-83
2021/05/22 09:23:24;;;;;;;2.10;1.60;;;10.80;84.10;;;;;;5053955;28;20241;-83
2021/05/22 09:25:59;;;;;;;4.33;2.80;;;10.70;85.10;;;;;;5054805;28;20218;-83
2021/05/22 09:28:32;;;;;;;3.93;2.23;;;10.70;85.10;;;;;;5056570;28;20163;-83
2021/05/22 09:30:59;;;;;;;3.00;2.03;;;10.70;84.90;;;;;;5054531;28;20552;-84
2021/05/22 09:33:27;;;;;;;6.43;2.77;;;10.70;84.80;;;;;;5054207;28;20195;-83
2021/05/22 09:36:02;;;;;;;7.33;2.43;;;10.70;86.00;;;;;;5054231;28;20243;-84
2021/05/22 09:38:39;;;;;;;8.50;2.87;;;10.60;85.90;;;;;;5036434;28;20510;-84
2021/05/22 09:41:17;;;;;;;5.33;2.20;;;10.70;85.90;;;;;;5054339;28;20168;-84
2021/05/22 09:44:12;;;;;;;3.50;2.03;;;10.70;86.00;;;;;;5054026;28;20192;-84
2021/05/22 09:46:44;;;;;;;11.33;2.87;;;10.60;86.40;;;;;;5054217;28;20218;-84
2021/05/22 09:49:18;;;;;;;7.03;2.60;;;10.60;86.70;;;;;;5055966;28;20579;-84
2021/05/22 09:51:58;;;;;;;2.30;2.10;;;10.60;86.50;;;;;;5037473;28;20213;-84
2021/05/22 09:54:41;;;;;;;6.73;2.30;;;10.50;86.30;;;;;;5036263;28;20188;-85
2021/05/22 09:57:07;;;;;;;14.13;2.20;;;10.50;86.30;;;;;;5054682;28;20207;-84
2021/05/22 09:59:33;;;;;;;3.10;1.90;;;10.50;86.80;;;;;;5054922;28;20527;-84
2021/05/22 10:01:59;;;;;;;3.23;2.33;;;10.50;87.00;;;;;;5035938;28;20184;-85
2021/05/22 10:04:25;;;;;;;6.70;3.20;;;10.40;87.40;;;;;;5054957;28;20203;-84
2021/05/22 10:06:52;;;;;;;4.47;2.60;;;10.40;87.60;;;;;;5054783;28;20168;-86
2021/05/22 10:09:19;;;;;;;4.47;2.40;;;10.50;87.50;;;;;;5054768;28;20274;-83
2021/05/22 10:12:04;;;;;;;5.33;2.40;;;10.50;86.10;;;;;;5053706;28;20230;-84
2021/05/22 10:14:33;;;;;;;2.20;1.93;;;10.50;86.20;;;;;;5053512;28;20541;-84
2021/05/22 10:17:01;;;;;;;8.17;2.27;;;10.60;85.10;;;;;;5035509;28;20202;-83
2021/05/22 10:19:27;;;;;;;2.53;2.00;;;10.50;85.60;;;;;;5053332;28;20651;-83
2021/05/22 10:21:53;;;;;;;7.73;2.90;;;10.60;86.00;;;;;;5035556;28;20233;-84
2021/05/22 10:24:19;;;;;;;3.00;2.40;;;10.50;86.70;;;;;;5035521;28;20263;-83
2021/05/22 10:26:44;;;;;;;3.33;2.03;;;10.50;86.80;;;;;;5055174;28;20176;-85
2021/05/22 10:29:11;;;;;;;11.33;2.60;;;10.50;87.10;;;;;;5036534;28;20195;-84
2021/05/22 10:31:41;;;;;;;2.60;2.00;;;10.50;87.10;;;;;;5037423;28;20180;-83
2021/05/22 10:34:12;;;;;;;4.40;2.50;;;10.50;85.80;;;;;;5053362;28;20238;-84
2021/05/22 10:36:58;;;;;;;1.90;1.60;;;10.60;86.60;;;;;;5053373;28;20175;-83
2021/05/22 10:39:39;;;;;;;5.73;2.57;;;10.60;86.70;;;;;;5035317;28;20177;-84
2021/05/22 10:42:07;;;;;;;4.40;2.57;;;10.70;86.90;;;;;;5035192;28;20172;-84
2021/05/22 10:44:37;;;;;;;3.60;3.07;;;10.60;87.50;;;;;;5035015;28;20295;-83
2021/05/22 10:47:13;;;;;;;6.27;2.87;;;10.70;87.70;;;;;;5035191;28;20176;-83
2021/05/22 10:49:55;;;;;;;6.10;2.47;;;10.70;87.30;;;;;;5035168;28;20187;-83
2021/05/22 10:52:28;;;;;;;2.27;2.07;;;10.60;87.70;;;;;;5035277;28;20183;-83
2021/05/22 10:55:07;;;;;;;4.63;2.17;;;10.60;88.50;;;;;;5035193;28;20156;-83
2021/05/22 10:57:42;;;;;;;6.00;3.53;;;10.60;88.60;;;;;;5053491;28;20152;-83
2021/05/22 11:00:13;;;;;;;5.10;2.70;;;10.50;88.80;;;;;;5035178;28;20195;-84
2021/05/22 11:02:45;;;;;;;6.37;3.30;;;10.60;89.20;;;;;;5034828;28;20706;-84
2021/05/22 11:05:28;;;;;;;4.93;2.77;;;10.60;89.30;;;;;;5053192;28;20228;-84
2021/05/22 11:08:08;;;;;;;5.23;3.30;;;10.60;88.50;;;;;;5035009;28;20204;-83
2021/05/22 11:10:38;;;;;;;4.17;3.20;;;10.60;88.80;;;;;;5034963;28;20176;-83
2021/05/22 11:13:05;;;;;;;10.67;3.70;;;10.50;88.90;;;;;;5034926;28;20199;-84
2021/05/22 11:15:57;;;;;;;7.53;4.17;;;10.50;89.40;;;;;;5052740;28;20246;-83
2021/05/22 11:18:25;;;;;;;6.13;3.70;;;10.50;89.30;;;;;;5052654;28;20183;-83
2021/05/22 11:21:08;;;;;;;6.23;3.57;;;10.50;89.80;;;;;;5052858;28;20537;-83
2021/05/22 11:24:01;;;;;;;9.00;4.33;;;10.60;90.10;;;;;;5034775;28;20206;-83
2021/05/22 11:26:46;;;;;;;9.83;3.87;;;10.50;89.60;;;;;;5052996;28;20169;-83
2021/05/22 11:29:12;;;;;;;6.43;4.40;;;10.50;90.10;;;;;;5052897;28;20183;-83
2021/05/22 11:31:38;;;;;;;7.60;4.13;;;10.50;90.00;;;;;;5037551;28;20173;-85
2021/05/22 11:34:22;;;;;;;3.20;2.90;;;10.60;90.00;;;;;;5052890;28;20227;-84
2021/05/22 11:37:09;;;;;;;4.80;4.03;;;10.60;89.60;;;;;;5052626;28;20180;-83
2021/05/22 11:39:42;;;;;;;4.20;3.73;;;10.70;89.30;;;;;;5034511;28;20286;-83
2021/05/22 11:42:27;;;;;;;10.67;3.93;;;10.70;89.10;;;;;;5035729;28;20559;-84
2021/05/22 11:44:54;;;;;;;9.53;4.33;;;10.70;89.00;;;;;;5053215;28;20171;-83
2021/05/22 11:47:20;;;;;;;6.83;4.00;;;10.80;89.60;;;;;;5038433;28;20648;-84
2021/05/22 11:49:46;;;;;;;12.07;4.53;;;10.80;89.20;;;;;;5056047;28;20612;-83
2021/05/22 11:52:35;;;;;;;3.93;3.27;;;10.80;88.70;;;;;;5038140;28;20218;-83
2021/05/22 11:55:15;;;;;;;3.77;2.87;;;10.90;88.50;;;;;;5056339;28;20289;-84
2021/05/22 11:57:41;;;;;;;5.33;3.80;;;11.00;88.40;;;;;;5055966;28;20259;-83
2021/05/22 12:00:08;;;;;;;4.73;3.13;;;11.00;88.60;;;;;;5055880;28;20278;-84
2021/05/22 12:02:38;;;;;;;6.43;3.33;;;11.00;88.10;;;;;;5081674;22;20196;-85
2021/05/22 12:05:07;;;;;;;10.93;3.20;;;11.10;87.60;;;;;;5037740;28;20200;-86
2021/05/22 12:07:49;;;;;;;4.23;2.87;;;11.10;88.10;;;;;;5038017;28;20180;-85
2021/05/22 12:10:16;;;;;;;6.97;4.03;;;11.20;87.70;;;;;;5038837;28;20168;-85
2021/05/22 12:12:43;;;;;;;6.47;4.07;;;11.20;87.60;;;;;;5037818;28;20200;-85
2021/05/22 12:15:30;;;;;;;8.27;2.80;;;11.20;87.40;;;;;;5055735;28;20225;-86
2021/05/22 12:18:03;;;;;;;4.17;3.20;;;11.20;87.40;;;;;;5037843;28;20167;-86
2021/05/22 12:20:29;;;;;;;8.83;3.60;;;11.10;87.20;;;;;;5037582;28;20282;-86
2021/05/22 12:23:00;;;;;;;5.23;4.00;;;11.10;88.10;;;;;;5055536;28;20284;-85
2021/05/22 12:25:29;;;;;;;13.40;4.10;;;11.10;88.00;;;;;;5056206;28;20152;-85
2021/05/22 12:27:55;;;;;;;4.07;3.43;;;11.10;88.10;;;;;;5055797;28;20164;-85
2021/05/22 12:30:22;;;;;;;6.07;4.10;;;11.20;87.40;;;;;;5037674;28;20187;-86
2021/05/22 12:33:09;;;;;;;5.10;3.40;;;11.20;87.40;;;;;;5037615;28;20199;-87
2021/05/22 12:35:34;;;;;;;3.00;2.80;;;11.20;87.60;;;;;;5037547;28;20262;-87
2021/05/22 12:38:00;;;;;;;5.53;4.00;;;11.30;87.00;;;;;;5037525;28;20274;-86
2021/05/22 12:40:26;;;;;;;4.37;3.13;;;11.30;86.90;;;;;;5037422;28;20192;-86
2021/05/22 12:42:53;;;;;;;5.50;3.70;;;11.40;86.80;;;;;;5055201;28;20184;-86
2021/05/22 12:45:19;;;;;;;8.93;4.53;;;11.50;87.40;;;;;;5037241;28;20172;-86
2021/05/22 12:47:48;;;;;;;8.97;3.97;;;11.50;87.00;;;;;;5037266;28;20286;-86
2021/05/22 12:50:21;;;;;;;4.83;3.80;;;11.50;86.60;;;;;;5055264;28;20152;-86
2021/05/22 12:52:51;;;;;;;6.27;3.50;;;11.40;86.90;;;;;;5037225;28;20168;-86
2021/05/22 12:55:22;;;;;;;9.13;4.40;;;11.30;87.00;;;;;;5037273;28;20175;-86
2021/05/22 12:57:48;;;;;;;9.17;3.57;;;11.30;87.30;;;;;;5038011;28;20271;-86